sensor_id;sensor_type;location;lat;lon;timestamp;pressure;altitude;pressure_sealevel;temperature;humidity
25526;BME280;13424;48.424;11.258;2022-12-24T00:00:56;95058.25;;;13.55;85.45
25526;BME280;13424;48.424;11.258;2022-12-24T00:03:22;95054.25;;;13.32;85.85
25526;BME280;13424;48.424;11.258;2022-12-24T00:05:58;95065.47;;;13.54;85.39
25526;BME280;13424;48.424;11.258;2022-12-24T00:08:28;95068.69;;;13.61;84.64
25526;BME280;13424;48.424;11.258;2022-12-24T00:10:54;95062.25;;;13.57;84.40
25526;BME280;13424;48.424;11.258;2022-12-24T00:13:20;95072.97;;;13.57;84.75
25526;BME280;13424;48.424;11.258;2022-12-24T00:15:46;95067.09;;;13.50;84.79
25526;BME280;13424;48.424;11.258;2022-12-24T00:18:12;95060.69;;;13.46;84.61
25526;BME280;13424;48.424;11.258;2022-12-24T00:20:38;95071.13;;;13.43;84.82
25526;BME280;13424;48.424;11.258;2022-12-24T00:23:04;95076.72;;;13.61;83.94
25526;BME280;13424;48.424;11.258;2022-12-24T00:25:29;95058.25;;;13.60;83.78
25526;BME280;13424;48.424;11.258;2022-12-24T00:27:55;95067.66;;;13.22;84.96
25526;BME280;13424;48.424;11.258;2022-12-24T00:30:21;95063.38;;;13.36;84.73
25526;BME280;13424;48.424;11.258;2022-12-24T00:32:59;95074.88;;;13.52;83.18
25526;BME280;13424;48.424;11.258;2022-12-24T00:35:25;95068.19;;;13.34;83.40
25526;BME280;13424;48.424;11.258;2022-12-24T00:37:51;95077.03;;;13.29;84.13
25526;BME280;13424;48.424;11.258;2022-12-24T00:40:17;95085.84;;;13.14;84.08
25526;BME280;13424;48.424;11.258;2022-12-24T00:42:43;95089.03;;;13.17;83.52
25526;BME280;13424;48.424;11.258;2022-12-24T00:45:10;95090.38;;;12.83;85.33
25526;BME280;13424;48.424;11.258;2022-12-24T00:47:36;95091.72;;;12.91;85.15
25526;BME280;13424;48.424;11.258;2022-12-24T00:50:03;95099.22;;;12.89;85.46
25526;BME280;13424;48.424;11.258;2022-12-24T00:52:29;95097.03;;;12.71;85.63
25526;BME280;13424;48.424;11.258;2022-12-24T00:54:55;95095.97;;;12.67;85.35
25526;BME280;13424;48.424;11.258;2022-12-24T00:57:20;95093.34;;;13.12;84.03
25526;BME280;13424;48.424;11.258;2022-12-24T00:59:46;95110.16;;;12.72;84.44
25526;BME280;13424;48.424;11.258;2022-12-24T01:02:12;95102.97;;;12.88;84.04
25526;BME280;13424;48.424;11.258;2022-12-24T01:04:38;95116.91;;;13.05;82.89
25526;BME280;13424;48.424;11.258;2022-12-24T01:07:22;95120.09;;;12.97;82.85
25526;BME280;13424;48.424;11.258;2022-12-24T01:09:48;95119.81;;;12.94;83.02
25526;BME280;13424;48.424;11.258;2022-12-24T01:12:14;95117.38;;;12.77;83.19
25526;BME280;13424;48.424;11.258;2022-12-24T01:14:39;95129.16;;;12.81;83.71
25526;BME280;13424;48.424;11.258;2022-12-24T01:17:05;95121.13;;;12.76;83.47
25526;BME280;13424;48.424;11.258;2022-12-24T01:19:32;95125.41;;;12.82;83.15
25526;BME280;13424;48.424;11.258;2022-12-24T01:21:58;95125.94;;;12.84;82.67
25526;BME280;13424;48.424;11.258;2022-12-24T01:24:24;95137.09;;;12.55;84.23
25526;BME280;13424;48.424;11.258;2022-12-24T01:26:49;95135.84;;;12.78;83.38
25526;BME280;13424;48.424;11.258;2022-12-24T01:29:15;95138.25;;;12.85;82.89
25526;BME280;13424;48.424;11.258;2022-12-24T01:31:41;95145.75;;;12.83;83.11
25526;BME280;13424;48.424;11.258;2022-12-24T01:34:07;95139.59;;;12.82;83.85
25526;BME280;13424;48.424;11.258;2022-12-24T01:36:32;95141.50;;;12.92;83.36
25526;BME280;13424;48.424;11.258;2022-12-24T01:38:58;95153.78;;;12.83;83.51
25526;BME280;13424;48.424;11.258;2022-12-24T01:54:00;95155.81;;;12.50;83.80
25526;BME280;13424;48.424;11.258;2022-12-24T01:56:28;95157.91;;;12.38;84.59
25526;BME280;13424;48.424;11.258;2022-12-24T01:59:04;95154.94;;;12.29;84.97
25526;BME280;13424;48.424;11.258;2022-12-24T02:01:31;95153.59;;;12.27;85.36
25526;BME280;13424;48.424;11.258;2022-12-24T02:03:57;95160.97;;;12.05;86.35
25526;BME280;13424;48.424;11.258;2022-12-24T02:06:23;95161.22;;;12.03;86.39
25526;BME280;13424;48.424;11.258;2022-12-24T02:08:49;95177.25;;;12.03;86.05
25526;BME280;13424;48.424;11.258;2022-12-24T02:11:20;95181.06;;;12.12;85.52
25526;BME280;13424;48.424;11.258;2022-12-24T02:13:54;95175.97;;;12.16;84.85
25526;BME280;13424;48.424;11.258;2022-12-24T02:16:41;95179.53;;;12.32;84.76
25526;BME280;13424;48.424;11.258;2022-12-24T02:19:36;95174.84;;;12.07;85.71
25526;BME280;13424;48.424;11.258;2022-12-24T02:22:50;95191.00;;;12.22;85.06
25526;BME280;13424;48.424;11.258;2022-12-24T02:29:13;95192.59;;;12.23;84.80
25526;BME280;13424;48.424;11.258;2022-12-24T02:32:07;95198.41;;;12.10;84.78
25526;BME280;13424;48.424;11.258;2022-12-24T02:37:19;95212.44;;;12.32;84.44
25526;BME280;13424;48.424;11.258;2022-12-24T02:40:02;95203.31;;;12.28;84.39
25526;BME280;13424;48.424;11.258;2022-12-24T02:42:43;95217.72;;;12.22;84.96
25526;BME280;13424;48.424;11.258;2022-12-24T02:45:14;95221.78;;;12.29;84.64
25526;BME280;13424;48.424;11.258;2022-12-24T02:47:41;95219.59;;;12.21;84.99
25526;BME280;13424;48.424;11.258;2022-12-24T02:50:10;95226.81;;;12.21;85.05
25526;BME280;13424;48.424;11.258;2022-12-24T02:52:39;95227.44;;;12.38;84.53
25526;BME280;13424;48.424;11.258;2022-12-24T03:01:16;95212.47;;;12.37;83.94
25526;BME280;13424;48.424;11.258;2022-12-24T03:07:04;95217.84;;;12.42;83.35
25526;BME280;13424;48.424;11.258;2022-12-24T03:12:25;95219.53;;;12.64;82.30
25526;BME280;13424;48.424;11.258;2022-12-24T03:14:52;95214.09;;;12.43;82.75
25526;BME280;13424;48.424;11.258;2022-12-24T03:17:19;95226.06;;;12.30;83.55
25526;BME280;13424;48.424;11.258;2022-12-24T03:19:45;95224.25;;;12.41;83.44
25526;BME280;13424;48.424;11.258;2022-12-24T03:22:11;95220.41;;;12.22;84.41
25526;BME280;13424;48.424;11.258;2022-12-24T03:24:37;95227.25;;;12.50;83.09
25526;BME280;13424;48.424;11.258;2022-12-24T03:27:05;95230.19;;;12.53;82.76
25526;BME280;13424;48.424;11.258;2022-12-24T03:29:33;95233.91;;;12.42;82.68
25526;BME280;13424;48.424;11.258;2022-12-24T03:32:02;95237.59;;;12.36;83.48
25526;BME280;13424;48.424;11.258;2022-12-24T03:34:28;95240.72;;;12.23;83.10
25526;BME280;13424;48.424;11.258;2022-12-24T03:36:55;95256.31;;;12.36;82.80
25526;BME280;13424;48.424;11.258;2022-12-24T03:39:21;95256.81;;;12.28;82.93
25526;BME280;13424;48.424;11.258;2022-12-24T03:41:47;95253.69;;;12.41;82.70
25526;BME280;13424;48.424;11.258;2022-12-24T03:44:13;95252.72;;;12.63;81.66
25526;BME280;13424;48.424;11.258;2022-12-24T03:46:39;95254.81;;;12.55;81.45
25526;BME280;13424;48.424;11.258;2022-12-24T03:49:05;95248.84;;;12.38;81.75
25526;BME280;13424;48.424;11.258;2022-12-24T03:51:30;95256.94;;;12.53;81.88
25526;BME280;13424;48.424;11.258;2022-12-24T03:53:58;95270.34;;;12.58;81.33
25526;BME280;13424;48.424;11.258;2022-12-24T03:56:25;95283.59;;;12.33;81.54
25526;BME280;13424;48.424;11.258;2022-12-24T03:58:51;95284.00;;;12.57;81.19
25526;BME280;13424;48.424;11.258;2022-12-24T04:01:18;95278.28;;;12.43;81.78
25526;BME280;13424;48.424;11.258;2022-12-24T04:03:44;95283.09;;;12.41;81.92
25526;BME280;13424;48.424;11.258;2022-12-24T04:06:12;95277.25;;;12.49;81.43
25526;BME280;13424;48.424;11.258;2022-12-24T04:08:39;95288.38;;;12.31;81.48
25526;BME280;13424;48.424;11.258;2022-12-24T04:11:16;95291.19;;;12.51;81.34
25526;BME280;13424;48.424;11.258;2022-12-24T04:17:04;95294.97;;;12.61;80.18
25526;BME280;13424;48.424;11.258;2022-12-24T04:19:30;95300.84;;;12.57;80.90
25526;BME280;13424;48.424;11.258;2022-12-24T04:21:56;95307.28;;;12.62;80.60
25526;BME280;13424;48.424;11.258;2022-12-24T04:24:22;95307.22;;;12.51;80.78
25526;BME280;13424;48.424;11.258;2022-12-24T04:26:48;95316.31;;;12.50;81.03
25526;BME280;13424;48.424;11.258;2022-12-24T04:29:14;95332.31;;;12.45;80.83
25526;BME280;13424;48.424;11.258;2022-12-24T04:31:40;95323.28;;;12.51;81.30
25526;BME280;13424;48.424;11.258;2022-12-24T04:34:17;95323.69;;;12.33;81.97
25526;BME280;13424;48.424;11.258;2022-12-24T04:36:43;95317.72;;;12.21;83.02
25526;BME280;13424;48.424;11.258;2022-12-24T04:39:09;95338.09;;;12.27;83.56
25526;BME280;13424;48.424;11.258;2022-12-24T04:41:35;95341.78;;;12.58;81.97
25526;BME280;13424;48.424;11.258;2022-12-24T04:44:01;95342.88;;;13.14;79.77
25526;BME280;13424;48.424;11.258;2022-12-24T04:46:28;95343.19;;;12.71;80.86
25526;BME280;13424;48.424;11.258;2022-12-24T04:48:58;95346.03;;;12.96;79.71
25526;BME280;13424;48.424;11.258;2022-12-24T04:51:25;95355.22;;;12.68;81.16
25526;BME280;13424;48.424;11.258;2022-12-24T04:53:52;95355.53;;;12.77;80.83
25526;BME280;13424;48.424;11.258;2022-12-24T04:56:25;95352.41;;;12.90;80.54
25526;BME280;13424;48.424;11.258;2022-12-24T04:58:51;95366.13;;;12.62;81.24
25526;BME280;13424;48.424;11.258;2022-12-24T05:01:21;95361.06;;;12.60;81.11
25526;BME280;13424;48.424;11.258;2022-12-24T05:03:47;95358.75;;;12.79;80.97
25526;BME280;13424;48.424;11.258;2022-12-24T05:06:18;95351.56;;;13.37;78.59
25526;BME280;13424;48.424;11.258;2022-12-24T05:08:45;95354.13;;;13.11;80.40
25526;BME280;13424;48.424;11.258;2022-12-24T05:11:11;95354.06;;;13.01;80.45
25526;BME280;13424;48.424;11.258;2022-12-24T05:13:39;95367.19;;;13.03;81.00
25526;BME280;13424;48.424;11.258;2022-12-24T05:16:06;95358.66;;;12.64;82.17
25526;BME280;13424;48.424;11.258;2022-12-24T05:18:32;95366.97;;;12.25;84.93
25526;BME280;13424;48.424;11.258;2022-12-24T05:20:58;95385.69;;;12.25;85.10
25526;BME280;13424;48.424;11.258;2022-12-24T05:23:24;95390.22;;;12.62;83.99
25526;BME280;13424;48.424;11.258;2022-12-24T05:26:19;95373.66;;;11.46;84.27
25526;BME280;13424;48.424;11.258;2022-12-24T05:28:51;95378.56;;;11.55;82.87
25526;BME280;13424;48.424;11.258;2022-12-24T05:31:17;95377.44;;;11.07;86.34
25526;BME280;13424;48.424;11.258;2022-12-24T05:33:43;95392.69;;;10.89;88.08
25526;BME280;13424;48.424;11.258;2022-12-24T05:36:09;95413.38;;;10.99;86.73
25526;BME280;13424;48.424;11.258;2022-12-24T05:38:35;95395.13;;;10.74;87.23
25526;BME280;13424;48.424;11.258;2022-12-24T05:41:01;95372.59;;;11.04;86.01
25526;BME280;13424;48.424;11.258;2022-12-24T05:43:27;95382.28;;;11.10;85.14
25526;BME280;13424;48.424;11.258;2022-12-24T05:46:07;95375.75;;;10.62;86.73
25526;BME280;13424;48.424;11.258;2022-12-24T05:48:33;95387.63;;;10.71;86.42
25526;BME280;13424;48.424;11.258;2022-12-24T05:51:03;95388.53;;;10.60;86.93
25526;BME280;13424;48.424;11.258;2022-12-24T05:53:31;95389.69;;;10.47;87.21
25526;BME280;13424;48.424;11.258;2022-12-24T05:56:12;95397.78;;;10.74;86.58
25526;BME280;13424;48.424;11.258;2022-12-24T05:58:39;95403.91;;;10.53;87.58
25526;BME280;13424;48.424;11.258;2022-12-24T06:01:06;95415.53;;;10.63;86.91
25526;BME280;13424;48.424;11.258;2022-12-24T06:03:32;95406.31;;;10.54;87.47
25526;BME280;13424;48.424;11.258;2022-12-24T06:06:12;95423.84;;;10.67;87.10
25526;BME280;13424;48.424;11.258;2022-12-24T06:08:40;95417.34;;;10.80;86.79
25526;BME280;13424;48.424;11.258;2022-12-24T06:11:10;95423.19;;;10.77;86.93
25526;BME280;13424;48.424;11.258;2022-12-24T06:13:36;95417.41;;;11.02;86.19
25526;BME280;13424;48.424;11.258;2022-12-24T06:16:05;95415.38;;;11.09;86.11
25526;BME280;13424;48.424;11.258;2022-12-24T06:18:33;95412.91;;;11.46;84.19
25526;BME280;13424;48.424;11.258;2022-12-24T06:21:03;95410.16;;;11.41;83.92
25526;BME280;13424;48.424;11.258;2022-12-24T06:23:31;95412.81;;;11.63;83.57
25526;BME280;13424;48.424;11.258;2022-12-24T06:25:58;95402.00;;;11.53;83.38
25526;BME280;13424;48.424;11.258;2022-12-24T06:28:29;95414.72;;;11.67;82.97
25526;BME280;13424;48.424;11.258;2022-12-24T06:30:55;95406.53;;;11.52;83.02
25526;BME280;13424;48.424;11.258;2022-12-24T06:33:21;95408.78;;;11.60;82.73
25526;BME280;13424;48.424;11.258;2022-12-24T06:35:47;95399.69;;;11.83;81.13
25526;BME280;13424;48.424;11.258;2022-12-24T06:38:14;95402.78;;;11.75;81.15
25526;BME280;13424;48.424;11.258;2022-12-24T06:40:42;95405.47;;;11.75;81.35
25526;BME280;13424;48.424;11.258;2022-12-24T06:43:09;95412.22;;;11.56;81.73
25526;BME280;13424;48.424;11.258;2022-12-24T06:46:16;95412.09;;;11.45;82.36
25526;BME280;13424;48.424;11.258;2022-12-24T06:48:43;95414.88;;;11.56;81.53
25526;BME280;13424;48.424;11.258;2022-12-24T06:51:10;95410.78;;;11.48;82.34
25526;BME280;13424;48.424;11.258;2022-12-24T06:53:36;95422.38;;;11.59;82.08
25526;BME280;13424;48.424;11.258;2022-12-24T06:56:08;95414.69;;;11.62;82.29
25526;BME280;13424;48.424;11.258;2022-12-24T06:58:35;95412.75;;;11.58;82.38
25526;BME280;13424;48.424;11.258;2022-12-24T07:01:03;95415.53;;;11.68;82.04
25526;BME280;13424;48.424;11.258;2022-12-24T07:03:30;95420.59;;;11.64;81.95
25526;BME280;13424;48.424;11.258;2022-12-24T07:06:06;95418.28;;;11.73;81.95
25526;BME280;13424;48.424;11.258;2022-12-24T07:08:35;95431.88;;;11.71;81.46
25526;BME280;13424;48.424;11.258;2022-12-24T07:11:01;95433.00;;;11.75;81.44
25526;BME280;13424;48.424;11.258;2022-12-24T07:13:27;95444.19;;;11.72;81.41
25526;BME280;13424;48.424;11.258;2022-12-24T07:16:01;95446.59;;;11.74;81.30
25526;BME280;13424;48.424;11.258;2022-12-24T07:18:27;95441.97;;;11.64;82.13
25526;BME280;13424;48.424;11.258;2022-12-24T07:20:53;95446.25;;;11.87;81.93
25526;BME280;13424;48.424;11.258;2022-12-24T07:23:19;95452.19;;;11.72;81.90
25526;BME280;13424;48.424;11.258;2022-12-24T07:25:45;95455.28;;;11.81;81.56
25526;BME280;13424;48.424;11.258;2022-12-24T07:28:11;95464.03;;;11.55;82.55
25526;BME280;13424;48.424;11.258;2022-12-24T07:30:37;95471.03;;;11.39;83.35
25526;BME280;13424;48.424;11.258;2022-12-24T07:33:03;95474.72;;;11.55;82.86
25526;BME280;13424;48.424;11.258;2022-12-24T07:35:29;95485.94;;;11.57;82.26
25526;BME280;13424;48.424;11.258;2022-12-24T07:37:54;95491.84;;;11.59;82.18
25526;BME280;13424;48.424;11.258;2022-12-24T07:40:20;95481.34;;;11.52;82.46
25526;BME280;13424;48.424;11.258;2022-12-24T07:42:46;95485.25;;;11.44;82.59
25526;BME280;13424;48.424;11.258;2022-12-24T07:45:12;95491.00;;;11.36;82.61
25526;BME280;13424;48.424;11.258;2022-12-24T07:47:37;95486.72;;;11.35;82.76
25526;BME280;13424;48.424;11.258;2022-12-24T07:50:04;95494.31;;;11.43;82.89
25526;BME280;13424;48.424;11.258;2022-12-24T07:52:30;95488.91;;;11.38;82.37
25526;BME280;13424;48.424;11.258;2022-12-24T07:54:56;95503.50;;;11.53;82.78
25526;BME280;13424;48.424;11.258;2022-12-24T07:57:22;95500.72;;;11.42;82.54
25526;BME280;13424;48.424;11.258;2022-12-24T07:59:48;95507.09;;;11.41;82.39
25526;BME280;13424;48.424;11.258;2022-12-24T08:02:14;95517.91;;;11.52;82.22
25526;BME280;13424;48.424;11.258;2022-12-24T08:04:39;95514.38;;;11.68;81.40
25526;BME280;13424;48.424;11.258;2022-12-24T08:07:06;95520.66;;;11.95;80.78
25526;BME280;13424;48.424;11.258;2022-12-24T08:09:34;95523.03;;;11.75;81.27
25526;BME280;13424;48.424;11.258;2022-12-24T08:12:00;95535.81;;;11.90;80.76
25526;BME280;13424;48.424;11.258;2022-12-24T08:14:30;95537.88;;;11.66;81.85
25526;BME280;13424;48.424;11.258;2022-12-24T08:16:56;95549.25;;;11.95;80.50
25526;BME280;13424;48.424;11.258;2022-12-24T08:19:23;95550.22;;;12.11;80.22
25526;BME280;13424;48.424;11.258;2022-12-24T08:21:49;95556.31;;;11.84;81.27
25526;BME280;13424;48.424;11.258;2022-12-24T08:24:14;95558.50;;;11.87;81.12
25526;BME280;13424;48.424;11.258;2022-12-24T08:26:40;95560.66;;;12.12;80.49
25526;BME280;13424;48.424;11.258;2022-12-24T08:29:06;95564.06;;;12.08;80.10
25526;BME280;13424;48.424;11.258;2022-12-24T08:31:32;95569.13;;;12.26;79.65
25526;BME280;13424;48.424;11.258;2022-12-24T08:34:06;95562.91;;;12.20;79.80
25526;BME280;13424;48.424;11.258;2022-12-24T08:36:33;95572.69;;;12.37;79.17
25526;BME280;13424;48.424;11.258;2022-12-24T08:38:59;95574.81;;;12.62;78.28
25526;BME280;13424;48.424;11.258;2022-12-24T08:41:31;95569.47;;;12.62;78.23
25526;BME280;13424;48.424;11.258;2022-12-24T08:43:57;95585.28;;;12.63;78.48
25526;BME280;13424;48.424;11.258;2022-12-24T08:46:26;95580.47;;;12.38;79.10
25526;BME280;13424;48.424;11.258;2022-12-24T08:48:51;95573.59;;;12.47;78.94
25526;BME280;13424;48.424;11.258;2022-12-24T08:51:17;95581.59;;;12.42;79.43
25526;BME280;13424;48.424;11.258;2022-12-24T08:53:44;95591.59;;;12.52;79.20
25526;BME280;13424;48.424;11.258;2022-12-24T08:56:11;95592.91;;;12.49;79.52
25526;BME280;13424;48.424;11.258;2022-12-24T08:58:37;95599.31;;;12.48;79.53
25526;BME280;13424;48.424;11.258;2022-12-24T09:01:13;95598.56;;;12.31;79.90
25526;BME280;13424;48.424;11.258;2022-12-24T09:03:39;95598.88;;;12.56;79.42
25526;BME280;13424;48.424;11.258;2022-12-24T09:06:06;95591.22;;;12.43;80.11
25526;BME280;13424;48.424;11.258;2022-12-24T09:08:35;95593.31;;;12.63;79.36
25526;BME280;13424;48.424;11.258;2022-12-24T09:11:12;95600.63;;;12.24;81.28
25526;BME280;13424;48.424;11.258;2022-12-24T09:13:41;95598.53;;;12.26;81.26
25526;BME280;13424;48.424;11.258;2022-12-24T09:16:09;95602.94;;;12.37;81.02
25526;BME280;13424;48.424;11.258;2022-12-24T09:18:36;95603.38;;;12.07;81.47
25526;BME280;13424;48.424;11.258;2022-12-24T09:21:10;95606.44;;;11.77;82.74
25526;BME280;13424;48.424;11.258;2022-12-24T09:23:40;95608.63;;;11.80;81.46
25526;BME280;13424;48.424;11.258;2022-12-24T09:26:18;95611.00;;;11.98;81.79
25526;BME280;13424;48.424;11.258;2022-12-24T09:29:14;95605.31;;;12.12;80.92
25526;BME280;13424;48.424;11.258;2022-12-24T09:31:41;95608.09;;;12.22;80.17
25526;BME280;13424;48.424;11.258;2022-12-24T09:34:07;95611.09;;;12.04;79.67
25526;BME280;13424;48.424;11.258;2022-12-24T09:36:33;95606.72;;;11.97;80.10
25526;BME280;13424;48.424;11.258;2022-12-24T09:38:59;95601.81;;;12.11;79.71
25526;BME280;13424;48.424;11.258;2022-12-24T09:41:51;95615.00;;;11.79;80.13
25526;BME280;13424;48.424;11.258;2022-12-24T09:44:43;95613.06;;;11.74;80.94
25526;BME280;13424;48.424;11.258;2022-12-24T09:47:32;95625.69;;;11.96;79.98
25526;BME280;13424;48.424;11.258;2022-12-24T09:50:01;95627.47;;;11.90;79.63
25526;BME280;13424;48.424;11.258;2022-12-24T09:52:39;95623.91;;;12.01;80.16
25526;BME280;13424;48.424;11.258;2022-12-24T09:55:21;95629.31;;;12.28;79.05
25526;BME280;13424;48.424;11.258;2022-12-24T09:57:48;95633.34;;;12.31;79.26
25526;BME280;13424;48.424;11.258;2022-12-24T10:00:27;95630.47;;;12.38;78.19
25526;BME280;13424;48.424;11.258;2022-12-24T10:02:53;95636.19;;;12.46;78.86
25526;BME280;13424;48.424;11.258;2022-12-24T10:05:37;95629.59;;;12.32;78.42
25526;BME280;13424;48.424;11.258;2022-12-24T10:10:54;95631.59;;;12.20;78.76
25526;BME280;13424;48.424;11.258;2022-12-24T10:25:49;95639.53;;;12.80;76.58
25526;BME280;13424;48.424;11.258;2022-12-24T10:28:30;95646.78;;;12.85;76.77
25526;BME280;13424;48.424;11.258;2022-12-24T10:31:00;95639.19;;;12.72;76.18
25526;BME280;13424;48.424;11.258;2022-12-24T10:33:38;95654.63;;;12.92;76.49
25526;BME280;13424;48.424;11.258;2022-12-24T10:36:08;95647.41;;;12.92;77.00
25526;BME280;13424;48.424;11.258;2022-12-24T10:38:35;95636.50;;;12.99;76.56
25526;BME280;13424;48.424;11.258;2022-12-24T10:41:01;95639.38;;;12.92;74.76
25526;BME280;13424;48.424;11.258;2022-12-24T10:43:29;95623.13;;;12.72;74.47
25526;BME280;13424;48.424;11.258;2022-12-24T10:46:14;95637.94;;;12.84;75.62
25526;BME280;13424;48.424;11.258;2022-12-24T10:48:44;95656.00;;;13.21;75.72
25526;BME280;13424;48.424;11.258;2022-12-24T10:54:21;95639.97;;;12.99;75.38
25526;BME280;13424;48.424;11.258;2022-12-24T10:56:56;95643.19;;;13.01;75.57
25526;BME280;13424;48.424;11.258;2022-12-24T11:02:28;95643.31;;;13.11;74.42
25526;BME280;13424;48.424;11.258;2022-12-24T11:04:56;95640.44;;;12.91;73.66
25526;BME280;13424;48.424;11.258;2022-12-24T11:07:24;95648.81;;;13.00;74.15
25526;BME280;13424;48.424;11.258;2022-12-24T11:10:01;95649.16;;;13.08;75.46
25526;BME280;13424;48.424;11.258;2022-12-24T11:12:32;95640.22;;;12.98;73.96
25526;BME280;13424;48.424;11.258;2022-12-24T11:19:18;95638.97;;;13.05;74.45
25526;BME280;13424;48.424;11.258;2022-12-24T11:21:44;95644.81;;;13.02;74.34
25526;BME280;13424;48.424;11.258;2022-12-24T11:24:27;95638.56;;;12.92;73.71
25526;BME280;13424;48.424;11.258;2022-12-24T11:26:54;95637.59;;;13.03;74.07
25526;BME280;13424;48.424;11.258;2022-12-24T11:29:40;95641.59;;;12.73;74.28
25526;BME280;13424;48.424;11.258;2022-12-24T11:32:19;95629.84;;;12.30;75.42
25526;BME280;13424;48.424;11.258;2022-12-24T11:34:45;95630.41;;;12.54;74.66
25526;BME280;13424;48.424;11.258;2022-12-24T11:37:20;95626.94;;;12.81;75.88
25526;BME280;13424;48.424;11.258;2022-12-24T11:39:55;95621.72;;;12.69;74.67
25526;BME280;13424;48.424;11.258;2022-12-24T11:42:35;95631.09;;;12.67;75.09
25526;BME280;13424;48.424;11.258;2022-12-24T11:45:23;95628.47;;;12.72;74.50
25526;BME280;13424;48.424;11.258;2022-12-24T11:47:50;95630.56;;;12.70;74.50
25526;BME280;13424;48.424;11.258;2022-12-24T11:50:29;95618.25;;;12.69;74.88
25526;BME280;13424;48.424;11.258;2022-12-24T11:56:07;95602.84;;;12.32;74.42
25526;BME280;13424;48.424;11.258;2022-12-24T11:58:46;95605.97;;;12.24;75.31
25526;BME280;13424;48.424;11.258;2022-12-24T12:01:33;95603.50;;;12.66;74.97
25526;BME280;13424;48.424;11.258;2022-12-24T12:04:16;95600.00;;;12.39;73.85
25526;BME280;13424;48.424;11.258;2022-12-24T12:06:57;95602.13;;;12.15;74.30
25526;BME280;13424;48.424;11.258;2022-12-24T12:14:36;95617.81;;;12.28;75.28
25526;BME280;13424;48.424;11.258;2022-12-24T12:20:24;95619.19;;;12.09;75.37
25526;BME280;13424;48.424;11.258;2022-12-24T12:23:25;95625.81;;;12.77;74.68
25526;BME280;13424;48.424;11.258;2022-12-24T12:26:17;95628.53;;;12.55;74.00
25526;BME280;13424;48.424;11.258;2022-12-24T12:33:14;95633.06;;;12.76;73.27
25526;BME280;13424;48.424;11.258;2022-12-24T12:35:43;95640.22;;;12.71;73.79
25526;BME280;13424;48.424;11.258;2022-12-24T12:38:20;95648.41;;;12.37;73.79
25526;BME280;13424;48.424;11.258;2022-12-24T12:44:18;95652.25;;;12.46;74.28
25526;BME280;13424;48.424;11.258;2022-12-24T12:57:59;95630.66;;;12.31;74.33
25526;BME280;13424;48.424;11.258;2022-12-24T13:00:26;95646.41;;;12.49;74.56
25526;BME280;13424;48.424;11.258;2022-12-24T13:15:19;95652.56;;;12.50;73.77
25526;BME280;13424;48.424;11.258;2022-12-24T13:18:33;95655.31;;;12.33;74.00
25526;BME280;13424;48.424;11.258;2022-12-24T13:21:02;95656.22;;;12.22;74.17
25526;BME280;13424;48.424;11.258;2022-12-24T13:23:28;95664.94;;;12.34;74.56
25526;BME280;13424;48.424;11.258;2022-12-24T13:25:56;95665.13;;;12.27;74.19
25526;BME280;13424;48.424;11.258;2022-12-24T13:30:52;95668.72;;;12.38;73.91
25526;BME280;13424;48.424;11.258;2022-12-24T13:38:56;95673.34;;;13.19;72.57
25526;BME280;13424;48.424;11.258;2022-12-24T13:47:17;95683.97;;;13.08;73.10
25526;BME280;13424;48.424;11.258;2022-12-24T13:49:50;95685.69;;;12.93;73.45
25526;BME280;13424;48.424;11.258;2022-12-24T13:52:23;95682.50;;;12.96;73.82
25526;BME280;13424;48.424;11.258;2022-12-24T13:57:52;95678.06;;;12.57;74.17
25526;BME280;13424;48.424;11.258;2022-12-24T14:00:42;95678.16;;;12.41;73.82
25526;BME280;13424;48.424;11.258;2022-12-24T14:05:45;95672.91;;;12.29;74.34
25526;BME280;13424;48.424;11.258;2022-12-24T14:11:07;95685.94;;;12.04;75.07
25526;BME280;13424;48.424;11.258;2022-12-24T14:19:18;95701.44;;;12.23;74.15
25526;BME280;13424;48.424;11.258;2022-12-24T14:24:42;95680.38;;;12.27;74.01
25526;BME280;13424;48.424;11.258;2022-12-24T14:27:23;95685.75;;;12.32;73.68
25526;BME280;13424;48.424;11.258;2022-12-24T14:32:39;95704.84;;;11.80;74.95
25526;BME280;13424;48.424;11.258;2022-12-24T14:35:16;95698.25;;;12.05;73.84
25526;BME280;13424;48.424;11.258;2022-12-24T14:37:59;95702.63;;;12.11;74.07
25526;BME280;13424;48.424;11.258;2022-12-24T14:40:31;95706.19;;;11.99;73.75
25526;BME280;13424;48.424;11.258;2022-12-24T14:46:35;95711.81;;;12.20;74.02
25526;BME280;13424;48.424;11.258;2022-12-24T14:49:27;95712.00;;;12.13;73.92
25526;BME280;13424;48.424;11.258;2022-12-24T14:52:30;95717.13;;;12.37;73.56
25526;BME280;13424;48.424;11.258;2022-12-24T14:54:59;95711.69;;;12.10;74.33
25526;BME280;13424;48.424;11.258;2022-12-24T14:57:25;95711.09;;;12.08;74.31
25526;BME280;13424;48.424;11.258;2022-12-24T14:59:58;95714.53;;;12.03;74.75
25526;BME280;13424;48.424;11.258;2022-12-24T15:02:49;95715.19;;;11.93;74.56
25526;BME280;13424;48.424;11.258;2022-12-24T15:08:02;95702.31;;;11.90;74.78
25526;BME280;13424;48.424;11.258;2022-12-24T15:10:34;95700.94;;;11.71;74.67
25526;BME280;13424;48.424;11.258;2022-12-24T15:13:06;95701.84;;;11.93;74.15
25526;BME280;13424;48.424;11.258;2022-12-24T15:15:33;95697.13;;;11.67;75.01
25526;BME280;13424;48.424;11.258;2022-12-24T15:18:00;95704.41;;;11.55;75.45
25526;BME280;13424;48.424;11.258;2022-12-24T15:20:27;95689.50;;;11.42;75.86
25526;BME280;13424;48.424;11.258;2022-12-24T15:22:56;95698.97;;;11.50;75.40
25526;BME280;13424;48.424;11.258;2022-12-24T15:25:30;95691.13;;;11.60;75.54
25526;BME280;13424;48.424;11.258;2022-12-24T15:27:57;95690.56;;;11.58;74.85
25526;BME280;13424;48.424;11.258;2022-12-24T15:30:26;95692.91;;;11.37;76.13